createdAt,value
2018-05-27T00:00:19.310Z,0.00
2018-05-27T00:01:19.313Z,0.00
2018-05-27T00:02:19.328Z,0.00
2018-05-27T00:03:19.131Z,0.00
2018-05-27T00:04:19.323Z,0.00
2018-05-27T00:05:19.127Z,0.00
2018-05-27T00:06:19.127Z,0.00
2018-05-27T00:07:19.358Z,0.00
2018-05-27T00:08:19.139Z,0.00
2018-05-27T00:09:19.135Z,0.00
2018-05-27T00:10:19.139Z,0.00
2018-05-27T00:11:19.344Z,0.00
2018-05-27T00:12:19.349Z,0.00
2018-05-27T00:13:19.174Z,0.00
2018-05-27T00:14:19.365Z,0.00
2018-05-27T00:15:19.154Z,0.00
2018-05-27T00:16:19.157Z,0.00
2018-05-27T00:17:19.173Z,0.00
2018-05-27T00:18:19.396Z,0.00
2018-05-27T00:19:19.181Z,0.00
2018-05-27T00:20:19.171Z,0.00
2018-05-27T00:21:19.373Z,0.00
2018-05-27T00:22:19.175Z,0.00
2018-05-27T00:23:19.381Z,0.00
2018-05-27T00:24:19.402Z,0.00
2018-05-27T00:25:19.184Z,0.00
2018-05-27T00:26:19.391Z,0.00
2018-05-27T00:27:19.219Z,0.00
2018-05-27T00:28:19.201Z,0.00
2018-05-27T00:29:19.196Z,0.00
2018-05-27T00:30:19.198Z,0.00
2018-05-27T00:31:19.212Z,0.00
2018-05-27T00:32:19.405Z,0.00
2018-05-27T00:33:19.407Z,0.00
2018-05-27T00:34:19.209Z,0.00
2018-05-27T00:35:19.426Z,0.00
2018-05-27T00:36:19.448Z,0.00
2018-05-27T00:37:19.228Z,0.00
2018-05-27T00:38:19.221Z,0.00
2018-05-27T00:39:19.437Z,0.00
2018-05-27T00:40:19.226Z,0.00
2018-05-27T00:41:19.229Z,0.00
2018-05-27T00:42:19.239Z,0.00
2018-05-27T00:43:19.239Z,0.00
2018-05-27T00:44:19.440Z,0.00
2018-05-27T00:45:19.257Z,0.00
2018-05-27T00:46:19.244Z,0.00
2018-05-27T00:47:19.267Z,0.00
2018-05-27T00:48:19.262Z,0.00
2018-05-27T00:49:19.254Z,0.00
2018-05-27T00:50:19.275Z,0.00
2018-05-27T00:51:19.265Z,0.00
2018-05-27T00:52:19.262Z,0.00
2018-05-27T00:53:19.476Z,0.00
2018-05-27T00:54:19.268Z,0.00
2018-05-27T00:55:19.501Z,0.00
2018-05-27T00:56:19.270Z,0.00
2018-05-27T00:57:19.480Z,0.00
2018-05-27T00:58:19.289Z,0.00
2018-05-27T00:59:19.291Z,0.00
2018-05-27T01:00:19.285Z,0.00
2018-05-27T01:01:19.493Z,0.00
2018-05-27T01:02:19.492Z,0.00
2018-05-27T01:03:19.497Z,0.00
2018-05-27T01:04:19.297Z,0.00
2018-05-27T01:05:19.300Z,0.00
2018-05-27T01:06:19.319Z,0.00
2018-05-27T01:07:19.520Z,0.00
2018-05-27T01:08:19.508Z,0.00
2018-05-27T01:09:19.315Z,0.00
2018-05-27T01:10:19.314Z,0.00
2018-05-27T01:11:19.328Z,0.00
2018-05-27T01:12:19.520Z,0.00
2018-05-27T01:13:19.336Z,0.00
2018-05-27T01:14:19.525Z,0.00
2018-05-27T01:15:19.342Z,0.00
2018-05-27T01:16:19.329Z,0.00
2018-05-27T01:17:19.333Z,0.00
2018-05-27T01:18:19.537Z,0.00
2018-05-27T01:19:19.340Z,0.00
2018-05-27T01:20:19.551Z,0.00
2018-05-27T01:21:19.355Z,0.00
2018-05-27T01:22:19.348Z,0.00
2018-05-27T01:23:19.357Z,0.00
2018-05-27T01:24:19.576Z,0.00
2018-05-27T01:25:19.351Z,0.00
2018-05-27T01:26:19.356Z,0.00
2018-05-27T01:27:19.369Z,0.00
2018-05-27T01:28:19.368Z,0.00
2018-05-27T01:29:19.575Z,0.00
2018-05-27T01:30:19.577Z,0.00
2018-05-27T01:31:19.368Z,0.00
2018-05-27T01:32:19.369Z,0.00
2018-05-27T01:33:19.574Z,0.00
2018-05-27T01:34:19.386Z,0.00
2018-05-27T01:35:19.386Z,0.00
2018-05-27T01:36:19.381Z,0.00
2018-05-27T01:37:19.379Z,0.00
2018-05-27T01:38:19.427Z,0.00
2018-05-27T01:39:19.600Z,0.00
2018-05-27T01:40:19.406Z,0.00
2018-05-27T01:41:19.594Z,0.00
2018-05-27T01:42:19.414Z,0.00
2018-05-27T01:43:19.394Z,0.00
2018-05-27T01:44:19.409Z,0.00
2018-05-27T01:45:19.399Z,0.00
2018-05-27T01:46:19.618Z,0.00
2018-05-27T01:47:19.407Z,0.00
2018-05-27T01:48:19.618Z,0.00
2018-05-27T01:49:19.410Z,0.00
2018-05-27T01:50:19.421Z,0.00
2018-05-27T01:51:19.413Z,0.00
2018-05-27T01:52:19.425Z,0.00
2018-05-27T01:53:19.630Z,0.00
2018-05-27T01:54:19.421Z,0.00
2018-05-27T01:55:19.439Z,0.00
2018-05-27T01:56:19.625Z,0.00
2018-05-27T01:57:19.437Z,0.00
2018-05-27T01:58:19.429Z,0.00
2018-05-27T01:59:19.448Z,0.00
2018-05-27T02:00:19.451Z,0.00
2018-05-27T02:01:19.435Z,0.00
2018-05-27T02:02:19.439Z,0.00
2018-05-27T02:03:19.646Z,0.00
2018-05-27T02:04:19.445Z,0.00
2018-05-27T02:05:19.497Z,0.00
2018-05-27T02:06:19.448Z,0.00
2018-05-27T02:07:19.458Z,0.00
2018-05-27T02:08:19.653Z,0.00
2018-05-27T02:09:19.669Z,0.00
2018-05-27T02:10:19.455Z,0.00
2018-05-27T02:11:19.679Z,0.00
2018-05-27T02:12:19.465Z,0.00
2018-05-27T02:13:19.472Z,0.00
2018-05-27T02:14:19.463Z,0.00
2018-05-27T02:15:19.668Z,0.00
2018-05-27T02:16:19.466Z,0.00
2018-05-27T02:17:19.471Z,0.00
2018-05-27T02:18:19.471Z,0.00
2018-05-27T02:19:19.474Z,0.00
2018-05-27T02:20:19.678Z,0.00
2018-05-27T02:21:19.477Z,0.00
2018-05-27T02:22:19.481Z,0.00
2018-05-27T02:23:19.510Z,0.00
2018-05-27T02:24:19.684Z,0.00
2018-05-27T02:25:19.496Z,0.00
2018-05-27T02:26:19.689Z,0.00
2018-05-27T02:27:19.502Z,0.00
2018-05-27T02:28:19.512Z,0.00
2018-05-27T02:29:19.492Z,0.00
2018-05-27T02:30:19.708Z,0.00
2018-05-27T02:31:19.507Z,0.00
2018-05-27T02:32:19.499Z,0.00
2018-05-27T02:33:19.512Z,0.00
2018-05-27T02:34:19.714Z,0.00
2018-05-27T02:35:19.519Z,0.00
2018-05-27T02:36:19.506Z,0.00
2018-05-27T02:37:19.519Z,0.00
2018-05-27T02:38:19.521Z,0.00
2018-05-27T02:39:19.514Z,0.00
2018-05-27T02:40:19.732Z,0.00
2018-05-27T02:41:19.718Z,0.00
2018-05-27T02:42:19.520Z,0.00
2018-05-27T02:43:19.529Z,0.00
2018-05-27T02:44:19.520Z,0.00
2018-05-27T02:45:19.540Z,0.00
2018-05-27T02:46:19.540Z,0.00
2018-05-27T02:47:19.738Z,0.00
2018-05-27T02:48:19.529Z,0.00
2018-05-27T02:49:19.547Z,0.00
2018-05-27T02:50:19.545Z,0.00
2018-05-27T02:51:19.561Z,0.00
2018-05-27T02:52:19.546Z,0.00
2018-05-27T02:53:19.554Z,0.00
2018-05-27T02:54:19.543Z,0.00
2018-05-27T02:55:19.574Z,0.00
2018-05-27T02:56:19.543Z,0.00
2018-05-27T02:57:19.755Z,0.00
2018-05-27T02:58:19.748Z,0.00
2018-05-27T02:59:19.558Z,0.00
2018-05-27T03:00:19.551Z,0.00
2018-05-27T03:01:19.563Z,0.00
2018-05-27T03:02:19.563Z,0.00
2018-05-27T03:03:19.555Z,0.00
2018-05-27T03:04:19.558Z,0.00
2018-05-27T03:05:19.587Z,0.00
2018-05-27T03:06:19.576Z,0.00
2018-05-27T03:07:19.565Z,0.00
2018-05-27T03:08:19.778Z,0.00
2018-05-27T03:09:19.580Z,0.00
2018-05-27T03:10:19.568Z,0.00
2018-05-27T03:11:19.570Z,0.00
2018-05-27T03:12:19.571Z,0.00
2018-05-27T03:13:19.582Z,0.00
2018-05-27T03:14:19.591Z,0.00
2018-05-27T03:15:19.791Z,0.00
2018-05-27T03:16:19.576Z,0.00
2018-05-27T03:17:19.592Z,0.00
2018-05-27T03:18:19.795Z,0.00
2018-05-27T03:19:19.584Z,0.00
2018-05-27T03:20:19.797Z,0.00
2018-05-27T03:21:19.589Z,0.00
2018-05-27T03:22:19.803Z,0.00
2018-05-27T03:23:19.796Z,0.00
2018-05-27T03:24:19.595Z,0.00
2018-05-27T03:25:19.597Z,0.00
2018-05-27T03:26:19.810Z,0.00
2018-05-27T03:27:19.805Z,0.00
2018-05-27T03:28:19.598Z,0.00
2018-05-27T03:29:19.611Z,0.00
2018-05-27T03:30:19.806Z,0.00
2018-05-27T03:31:19.605Z,0.00
2018-05-27T03:32:19.635Z,0.00
2018-05-27T03:33:19.624Z,0.00
2018-05-27T03:34:19.612Z,0.00
2018-05-27T03:35:19.621Z,0.00
2018-05-27T03:36:19.624Z,0.00
2018-05-27T03:37:19.616Z,0.00
2018-05-27T03:38:19.628Z,0.00
2018-05-27T03:39:19.621Z,0.00
2018-05-27T03:40:19.650Z,0.00
2018-05-27T03:41:19.622Z,0.00
2018-05-27T03:42:19.624Z,0.00
2018-05-27T03:43:19.827Z,0.00
2018-05-27T03:44:19.833Z,0.00
2018-05-27T03:45:19.831Z,0.00
2018-05-27T03:46:19.630Z,0.00
2018-05-27T03:47:19.632Z,0.00
2018-05-27T03:48:19.838Z,0.00
2018-05-27T03:49:19.637Z,0.00
2018-05-27T03:50:19.695Z,0.00
2018-05-27T03:51:19.643Z,0.00
2018-05-27T03:52:19.642Z,0.00
2018-05-27T03:53:19.859Z,0.00
2018-05-27T03:54:19.648Z,0.00
2018-05-27T03:55:19.648Z,0.00
2018-05-27T03:56:19.653Z,0.00
2018-05-27T03:57:19.663Z,0.00
2018-05-27T03:58:19.654Z,0.00
2018-05-27T03:59:19.664Z,0.00
2018-05-27T04:00:19.657Z,0.00
2018-05-27T04:01:19.657Z,0.00
2018-05-27T04:02:19.861Z,0.00
2018-05-27T04:03:19.878Z,0.00
2018-05-27T04:04:19.672Z,0.00
2018-05-27T04:05:19.866Z,0.00
2018-05-27T04:06:19.668Z,0.00
2018-05-27T04:07:19.671Z,0.00
2018-05-27T04:08:19.671Z,0.00
2018-05-27T04:09:19.689Z,0.00
2018-05-27T04:10:19.674Z,0.00
2018-05-27T04:11:19.678Z,0.00
2018-05-27T04:12:19.676Z,0.00
2018-05-27T04:13:19.878Z,0.00
2018-05-27T04:14:19.884Z,0.00
2018-05-27T04:15:19.888Z,0.00
2018-05-27T04:16:19.697Z,0.00
2018-05-27T04:17:19.684Z,0.00
2018-05-27T04:18:19.687Z,0.00
2018-05-27T04:19:19.722Z,0.00
2018-05-27T04:20:19.701Z,0.00
2018-05-27T04:21:19.694Z,0.00
2018-05-27T04:22:19.708Z,0.00
2018-05-27T04:23:19.700Z,0.00
2018-05-27T04:24:19.701Z,0.00
2018-05-27T04:25:19.701Z,0.00
2018-05-27T04:26:19.704Z,0.00
2018-05-27T04:27:19.921Z,0.00
2018-05-27T04:28:19.795Z,0.00
2018-05-27T04:29:19.719Z,0.00
2018-05-27T04:30:19.710Z,0.00
2018-05-27T04:31:19.927Z,0.00
2018-05-27T04:32:19.713Z,0.00
2018-05-27T04:33:19.717Z,0.00
2018-05-27T04:34:19.748Z,0.00
2018-05-27T04:35:19.728Z,0.00
2018-05-27T04:36:19.735Z,0.00
2018-05-27T04:37:19.734Z,5.63
2018-05-27T04:38:19.726Z,5.63
2018-05-27T04:39:19.728Z,5.63
2018-05-27T04:40:19.729Z,5.63
2018-05-27T04:41:19.750Z,5.63
2018-05-27T04:42:19.937Z,5.63
2018-05-27T04:43:19.738Z,5.63
2018-05-27T04:44:19.742Z,5.63
2018-05-27T04:45:19.752Z,5.63
2018-05-27T04:46:19.753Z,5.63
2018-05-27T04:47:19.747Z,5.63
2018-05-27T04:48:19.779Z,5.63
2018-05-27T04:49:19.749Z,5.63
2018-05-27T04:50:19.755Z,0.00
2018-05-27T04:51:19.778Z,5.63
2018-05-27T04:52:19.758Z,0.00
2018-05-27T04:53:19.758Z,5.63
2018-05-27T04:54:19.765Z,5.63
2018-05-27T04:55:19.881Z,5.63
2018-05-27T04:56:19.778Z,5.63
2018-05-27T04:57:19.775Z,5.63
2018-05-27T04:58:19.794Z,5.63
2018-05-27T04:59:19.772Z,5.63
2018-05-27T05:00:19.773Z,5.63
2018-05-27T05:01:19.780Z,5.63
2018-05-27T05:02:19.778Z,5.63
2018-05-27T05:03:19.780Z,5.63
2018-05-27T05:04:19.791Z,5.63
2018-05-27T05:05:19.784Z,5.63
2018-05-27T05:06:19.787Z,5.63
2018-05-27T05:07:20.001Z,5.63
2018-05-27T05:08:19.790Z,5.63
2018-05-27T05:09:20.006Z,5.63
2018-05-27T05:10:19.806Z,5.63
2018-05-27T05:11:19.798Z,5.63
2018-05-27T05:12:19.801Z,5.63
2018-05-27T05:13:20.003Z,5.63
2018-05-27T05:14:20.007Z,5.63
2018-05-27T05:15:19.807Z,5.63
2018-05-27T05:16:19.816Z,5.63
2018-05-27T05:17:19.810Z,5.63
2018-05-27T05:18:19.816Z,5.63
2018-05-27T05:19:19.832Z,5.63
2018-05-27T05:20:20.031Z,5.63
2018-05-27T05:21:20.023Z,5.63
2018-05-27T05:22:20.042Z,11.25
2018-05-27T05:23:19.842Z,11.25
2018-05-27T05:24:19.882Z,5.63
2018-05-27T05:25:20.030Z,5.63
2018-05-27T05:26:19.834Z,11.25
2018-05-27T05:27:20.036Z,5.63
2018-05-27T05:28:19.848Z,5.63
2018-05-27T05:29:19.862Z,11.25
2018-05-27T05:30:19.859Z,11.25
2018-05-27T05:31:19.847Z,11.25
2018-05-27T05:32:20.048Z,11.25
2018-05-27T05:33:20.051Z,11.25
2018-05-27T05:34:20.068Z,5.63
2018-05-27T05:35:20.065Z,5.63
2018-05-27T05:36:19.888Z,5.63
2018-05-27T05:37:20.059Z,5.63
2018-05-27T05:38:19.859Z,5.63
2018-05-27T05:39:19.862Z,5.63
2018-05-27T05:40:19.864Z,5.63
2018-05-27T05:41:19.873Z,5.63
2018-05-27T05:42:19.873Z,5.63
2018-05-27T05:43:20.075Z,5.63
2018-05-27T05:44:19.874Z,5.63
2018-05-27T05:45:19.876Z,5.63
2018-05-27T05:46:19.881Z,5.63
2018-05-27T05:47:19.882Z,5.63
2018-05-27T05:48:19.885Z,5.63
2018-05-27T05:49:20.106Z,5.63
2018-05-27T05:50:19.899Z,5.63
2018-05-27T05:51:19.892Z,5.63
2018-05-27T05:52:20.096Z,5.63
2018-05-27T05:53:19.896Z,5.63
2018-05-27T05:54:19.899Z,5.63
2018-05-27T05:55:20.105Z,5.63
2018-05-27T05:56:19.904Z,5.63
2018-05-27T05:57:19.907Z,5.63
2018-05-27T05:58:19.923Z,11.25
2018-05-27T05:59:20.145Z,11.25
2018-05-27T06:00:19.915Z,11.25
2018-05-27T06:01:20.119Z,5.63
2018-05-27T06:02:19.931Z,5.63
2018-05-27T06:03:19.923Z,11.25
2018-05-27T06:04:19.925Z,11.25
2018-05-27T06:05:20.145Z,16.88
2018-05-27T06:06:19.933Z,16.88
2018-05-27T06:07:20.135Z,16.88
2018-05-27T06:08:19.934Z,56.25
2018-05-27T06:09:20.149Z,56.25
2018-05-27T06:10:19.943Z,16.88
2018-05-27T06:11:19.949Z,16.88
2018-05-27T06:12:19.957Z,22.50
2018-05-27T06:13:19.961Z,22.50
2018-05-27T06:14:20.163Z,22.50
2018-05-27T06:15:20.158Z,106.88
2018-05-27T06:16:19.955Z,213.75
2018-05-27T06:17:20.162Z,90.00
2018-05-27T06:18:19.964Z,22.50
2018-05-27T06:19:19.987Z,22.50
2018-05-27T06:20:19.968Z,22.50
2018-05-27T06:21:19.973Z,22.50
2018-05-27T06:22:20.176Z,22.50
2018-05-27T06:23:19.977Z,22.50
2018-05-27T06:24:19.979Z,22.50
2018-05-27T06:25:19.985Z,28.13
2018-05-27T06:26:19.997Z,22.50
2018-05-27T06:27:20.199Z,22.50
2018-05-27T06:28:19.991Z,22.50
2018-05-27T06:29:19.994Z,22.50
2018-05-27T06:30:20.011Z,22.50
2018-05-27T06:31:20.001Z,22.50
2018-05-27T06:32:20.202Z,28.13
2018-05-27T06:33:20.004Z,33.75
2018-05-27T06:34:20.220Z,33.75
2018-05-27T06:35:20.010Z,84.38
2018-05-27T06:36:20.031Z,174.38
2018-05-27T06:37:20.021Z,309.38
2018-05-27T06:38:20.223Z,135.00
2018-05-27T06:39:20.024Z,67.50
2018-05-27T06:40:20.026Z,50.63
2018-05-27T06:41:20.043Z,56.25
2018-05-27T06:42:20.042Z,28.13
2018-05-27T06:43:20.046Z,22.50
2018-05-27T06:44:20.250Z,22.50
2018-05-27T06:45:20.051Z,22.50
2018-05-27T06:46:20.068Z,22.50
2018-05-27T06:47:20.068Z,22.50
2018-05-27T06:48:20.056Z,16.88
2018-05-27T06:49:20.067Z,16.88
2018-05-27T06:50:20.056Z,28.13
2018-05-27T06:51:20.120Z,28.13
2018-05-27T06:52:20.082Z,22.50
2018-05-27T06:53:20.266Z,22.50
2018-05-27T06:54:20.287Z,22.50
2018-05-27T06:55:20.273Z,22.50
2018-05-27T06:56:20.286Z,16.88
2018-05-27T06:57:20.293Z,16.88
2018-05-27T06:58:20.094Z,16.88
2018-05-27T06:59:20.095Z,16.88
2018-05-27T07:00:20.298Z,16.88
2018-05-27T07:01:20.107Z,16.88
2018-05-27T07:02:20.104Z,22.50
2018-05-27T07:03:20.107Z,33.75
2018-05-27T07:04:20.122Z,33.75
2018-05-27T07:05:20.102Z,39.38
2018-05-27T07:06:20.317Z,28.13
2018-05-27T07:07:20.126Z,16.88
2018-05-27T07:08:20.121Z,28.13
2018-05-27T07:09:20.326Z,28.13
2018-05-27T07:10:20.145Z,39.38
2018-05-27T07:11:20.133Z,33.75
2018-05-27T07:12:20.153Z,22.50
2018-05-27T07:13:20.127Z,22.50
2018-05-27T07:14:20.333Z,16.88
2018-05-27T07:15:20.136Z,16.88
2018-05-27T07:16:20.351Z,16.88
2018-05-27T07:17:20.145Z,22.50
2018-05-27T07:18:20.142Z,22.50
2018-05-27T07:19:20.149Z,22.50
2018-05-27T07:20:20.159Z,22.50
2018-05-27T07:21:20.166Z,22.50
2018-05-27T07:22:20.170Z,16.88
2018-05-27T07:23:20.374Z,16.88
2018-05-27T07:24:20.164Z,16.88
2018-05-27T07:25:20.166Z,16.88
2018-05-27T07:26:20.171Z,16.88
2018-05-27T07:27:20.172Z,16.88
2018-05-27T07:28:20.175Z,16.88
2018-05-27T07:29:20.230Z,16.88
2018-05-27T07:30:20.194Z,16.88
2018-05-27T07:31:20.187Z,16.88
2018-05-27T07:32:20.205Z,16.88
2018-05-27T07:33:20.407Z,16.88
2018-05-27T07:34:20.207Z,16.88
2018-05-27T07:35:20.201Z,16.88
2018-05-27T07:36:20.204Z,16.88
2018-05-27T07:37:20.409Z,22.50
2018-05-27T07:38:20.208Z,22.50
2018-05-27T07:39:20.415Z,22.50
2018-05-27T07:40:20.215Z,28.13
2018-05-27T07:41:20.235Z,22.50
2018-05-27T07:42:20.226Z,22.50
2018-05-27T07:43:20.229Z,22.50
2018-05-27T07:44:20.448Z,33.75
2018-05-27T07:45:20.247Z,33.75
2018-05-27T07:46:20.238Z,22.50
2018-05-27T07:47:20.255Z,28.13
2018-05-27T07:48:20.447Z,95.63
2018-05-27T07:49:20.247Z,331.88
2018-05-27T07:50:20.254Z,50.63
2018-05-27T07:51:20.260Z,28.13
2018-05-27T07:52:20.259Z,28.13
2018-05-27T07:53:20.284Z,28.13
2018-05-27T07:54:20.278Z,28.13
2018-05-27T07:55:20.485Z,28.13
2018-05-27T07:56:20.282Z,22.50
2018-05-27T07:57:20.293Z,28.13
2018-05-27T07:58:20.334Z,22.50
2018-05-27T07:59:20.503Z,22.50
2018-05-27T08:00:20.290Z,28.13
2018-05-27T08:01:20.304Z,28.13
2018-05-27T08:02:20.310Z,28.13
2018-05-27T08:03:20.518Z,28.13
2018-05-27T08:04:20.505Z,22.50
2018-05-27T08:05:20.308Z,22.50
2018-05-27T08:06:20.310Z,28.13
2018-05-27T08:07:20.537Z,28.13
2018-05-27T08:08:20.319Z,28.13
2018-05-27T08:09:20.321Z,28.13
2018-05-27T08:10:20.325Z,33.75
2018-05-27T08:11:20.532Z,50.63
2018-05-27T08:12:20.335Z,33.75
2018-05-27T08:13:20.338Z,28.13
2018-05-27T08:14:20.343Z,22.50
2018-05-27T08:15:20.360Z,22.50
2018-05-27T08:16:20.350Z,22.50
2018-05-27T08:17:20.356Z,22.50
2018-05-27T08:18:20.359Z,22.50
2018-05-27T08:19:20.374Z,22.50
2018-05-27T08:20:20.367Z,22.50
2018-05-27T08:21:20.383Z,22.50
2018-05-27T08:22:20.372Z,22.50
2018-05-27T08:23:20.378Z,22.50
2018-05-27T08:24:20.392Z,28.13
2018-05-27T08:25:20.384Z,28.13
2018-05-27T08:26:20.392Z,28.13
2018-05-27T08:27:20.598Z,22.50
2018-05-27T08:28:20.399Z,22.50
2018-05-27T08:29:20.604Z,22.50
2018-05-27T08:30:20.611Z,22.50
2018-05-27T08:31:20.611Z,16.88
2018-05-27T08:32:20.414Z,22.50
2018-05-27T08:33:20.418Z,22.50
2018-05-27T08:34:20.421Z,22.50
2018-05-27T08:35:20.429Z,22.50
2018-05-27T08:36:20.430Z,28.13
2018-05-27T08:37:20.437Z,28.13
2018-05-27T08:38:20.437Z,28.13
2018-05-27T08:39:20.441Z,28.13
2018-05-27T08:40:20.650Z,28.13
2018-05-27T08:41:20.447Z,22.50
2018-05-27T08:42:20.655Z,22.50
2018-05-27T08:43:20.460Z,28.13
2018-05-27T08:44:20.666Z,28.13
2018-05-27T08:45:20.668Z,22.50
2018-05-27T08:46:20.671Z,22.50
2018-05-27T08:47:20.473Z,22.50
2018-05-27T08:48:20.475Z,22.50
2018-05-27T08:49:20.480Z,28.13
2018-05-27T08:50:20.485Z,22.50
2018-05-27T08:51:20.500Z,28.13
2018-05-27T08:52:20.703Z,28.13
2018-05-27T08:53:20.551Z,22.50
2018-05-27T08:54:20.701Z,16.88
2018-05-27T08:55:20.516Z,22.50
2018-05-27T08:56:20.506Z,16.88
2018-05-27T08:57:20.525Z,22.50
2018-05-27T08:58:20.530Z,22.50
2018-05-27T08:59:20.517Z,28.13
2018-05-27T09:00:20.737Z,16.88
2018-05-27T09:01:20.593Z,22.50
2018-05-27T09:02:20.535Z,22.50
2018-05-27T09:03:20.535Z,22.50
2018-05-27T09:04:20.542Z,22.50
2018-05-27T09:05:20.769Z,22.50
2018-05-27T09:06:20.548Z,22.50
2018-05-27T09:07:20.757Z,22.50
2018-05-27T09:08:20.556Z,22.50
2018-05-27T09:09:20.560Z,28.13
2018-05-27T09:10:20.562Z,22.50
2018-05-27T09:11:20.779Z,28.13
2018-05-27T09:12:20.568Z,22.50
2018-05-27T09:13:20.590Z,22.50
2018-05-27T09:14:20.590Z,28.13
2018-05-27T09:15:20.592Z,22.50
2018-05-27T09:16:20.588Z,28.13
2018-05-27T09:17:20.604Z,22.50
2018-05-27T09:18:20.812Z,22.50
2018-05-27T09:19:20.608Z,22.50
2018-05-27T09:20:20.602Z,22.50
2018-05-27T09:21:20.606Z,22.50
2018-05-27T09:22:20.832Z,22.50
2018-05-27T09:23:20.824Z,22.50
2018-05-27T09:24:20.829Z,22.50
2018-05-27T09:25:20.622Z,22.50
2018-05-27T09:26:20.632Z,22.50
2018-05-27T09:27:20.639Z,22.50
2018-05-27T09:28:20.637Z,22.50
2018-05-27T09:29:20.636Z,22.50
2018-05-27T09:30:20.654Z,22.50
2018-05-27T09:31:20.647Z,22.50
2018-05-27T09:32:20.664Z,22.50
2018-05-27T09:33:20.654Z,22.50
2018-05-27T09:34:20.662Z,22.50
2018-05-27T09:35:20.876Z,22.50
2018-05-27T09:36:20.691Z,22.50
2018-05-27T09:37:20.675Z,22.50
2018-05-27T09:38:20.677Z,22.50
2018-05-27T09:39:20.754Z,22.50
2018-05-27T09:40:20.683Z,22.50
2018-05-27T09:41:20.688Z,22.50
2018-05-27T09:42:20.722Z,22.50
2018-05-27T09:43:20.696Z,22.50
2018-05-27T09:44:20.711Z,22.50
2018-05-27T09:45:20.792Z,22.50
2018-05-27T09:46:20.709Z,16.88
2018-05-27T09:47:20.726Z,22.50
2018-05-27T09:48:20.718Z,22.50
2018-05-27T09:49:20.722Z,22.50
2018-05-27T09:50:20.726Z,22.50
2018-05-27T09:51:20.780Z,22.50
2018-05-27T09:52:20.745Z,22.50
2018-05-27T09:53:20.943Z,22.50
2018-05-27T09:54:20.749Z,16.88
2018-05-27T09:55:20.960Z,16.88
2018-05-27T09:56:20.780Z,16.88
2018-05-27T09:57:20.958Z,16.88
2018-05-27T09:58:20.761Z,16.88
2018-05-27T09:59:20.766Z,16.88
2018-05-27T10:00:20.987Z,16.88
2018-05-27T10:01:20.783Z,16.88
2018-05-27T10:02:20.779Z,16.88
2018-05-27T10:03:20.988Z,16.88
2018-05-27T10:04:20.789Z,16.88
2018-05-27T10:05:20.795Z,16.88
2018-05-27T10:06:20.797Z,16.88
2018-05-27T10:07:20.800Z,16.88
2018-05-27T10:08:20.814Z,16.88
2018-05-27T10:09:20.811Z,16.88
2018-05-27T10:10:20.819Z,16.88
2018-05-27T10:11:20.829Z,16.88
2018-05-27T10:12:21.022Z,16.88
2018-05-27T10:13:20.827Z,16.88
2018-05-27T10:14:20.854Z,16.88
2018-05-27T10:15:20.839Z,16.88
2018-05-27T10:16:20.853Z,16.88
2018-05-27T10:17:20.844Z,16.88
2018-05-27T10:18:21.057Z,16.88
2018-05-27T10:19:20.853Z,16.88
2018-05-27T10:20:21.073Z,16.88
2018-05-27T10:21:20.867Z,16.88
2018-05-27T10:22:21.068Z,16.88
2018-05-27T10:23:20.873Z,16.88
2018-05-27T10:24:21.080Z,16.88
2018-05-27T10:25:21.084Z,16.88
2018-05-27T10:26:20.898Z,16.88
2018-05-27T10:27:21.092Z,16.88
2018-05-27T10:28:20.894Z,16.88
2018-05-27T10:29:20.901Z,16.88
2018-05-27T10:30:21.108Z,16.88
2018-05-27T10:31:21.120Z,16.88
2018-05-27T10:32:21.115Z,16.88
2018-05-27T10:33:20.918Z,16.88
2018-05-27T10:34:20.922Z,16.88
2018-05-27T10:35:20.929Z,16.88
2018-05-27T10:36:20.930Z,16.88
2018-05-27T10:37:20.939Z,16.88
2018-05-27T10:38:20.966Z,16.88
2018-05-27T10:39:20.946Z,11.25
2018-05-27T10:40:20.952Z,11.25
2018-05-27T10:41:20.955Z,11.25
2018-05-27T10:42:20.969Z,16.88
2018-05-27T10:43:21.166Z,16.88
2018-05-27T10:44:20.971Z,22.50
2018-05-27T10:45:20.989Z,28.13
2018-05-27T10:46:20.983Z,28.13
2018-05-27T10:47:21.196Z,28.13
2018-05-27T10:48:21.192Z,22.50
2018-05-27T10:49:21.199Z,22.50
2018-05-27T10:50:21.000Z,22.50
2018-05-27T10:51:21.004Z,22.50
2018-05-27T10:52:21.017Z,22.50
2018-05-27T10:53:21.215Z,33.75
2018-05-27T10:54:21.017Z,33.75
2018-05-27T10:55:21.022Z,28.13
2018-05-27T10:56:21.027Z,28.13
2018-05-27T10:57:21.036Z,22.50
2018-05-27T10:58:21.039Z,22.50
2018-05-27T10:59:21.045Z,22.50
2018-05-27T11:00:21.044Z,22.50
2018-05-27T11:01:21.054Z,22.50
2018-05-27T11:02:21.054Z,22.50
2018-05-27T11:03:21.271Z,28.13
2018-05-27T11:04:21.063Z,22.50
2018-05-27T11:05:21.070Z,22.50
2018-05-27T11:06:21.089Z,22.50
2018-05-27T11:07:21.292Z,22.50
2018-05-27T11:08:21.084Z,22.50
2018-05-27T11:09:21.088Z,22.50
2018-05-27T11:10:21.093Z,22.50
2018-05-27T11:11:21.101Z,22.50
2018-05-27T11:12:21.115Z,22.50
2018-05-27T11:13:21.110Z,22.50
2018-05-27T11:14:21.113Z,22.50
2018-05-27T11:15:21.128Z,22.50
2018-05-27T11:16:21.121Z,22.50
2018-05-27T11:17:21.127Z,22.50
2018-05-27T11:18:21.143Z,16.88
2018-05-27T11:19:21.137Z,16.88
2018-05-27T11:20:21.150Z,16.88
2018-05-27T11:21:21.146Z,16.88
2018-05-27T11:22:21.353Z,16.88
2018-05-27T11:23:21.371Z,16.88
2018-05-27T11:24:21.162Z,16.88
2018-05-27T11:25:21.169Z,16.88
2018-05-27T11:26:21.383Z,16.88
2018-05-27T11:27:21.179Z,16.88
2018-05-27T11:28:21.181Z,16.88
2018-05-27T11:29:21.389Z,16.88
2018-05-27T11:30:21.403Z,16.88
2018-05-27T11:31:21.209Z,16.88
2018-05-27T11:32:21.221Z,16.88
2018-05-27T11:33:21.205Z,16.88
2018-05-27T11:34:21.211Z,16.88
2018-05-27T11:35:21.219Z,16.88
2018-05-27T11:36:21.236Z,16.88
2018-05-27T11:37:21.224Z,16.88
2018-05-27T11:38:21.231Z,16.88
2018-05-27T11:39:21.238Z,16.88
2018-05-27T11:40:21.240Z,16.88
2018-05-27T11:41:21.246Z,16.88
2018-05-27T11:42:21.261Z,16.88
2018-05-27T11:43:21.258Z,16.88
2018-05-27T11:44:21.284Z,16.88
2018-05-27T11:45:21.266Z,16.88
2018-05-27T11:46:21.274Z,16.88
2018-05-27T11:47:21.477Z,16.88
2018-05-27T11:48:21.290Z,16.88
2018-05-27T11:49:21.286Z,16.88
2018-05-27T11:50:21.294Z,16.88
2018-05-27T11:51:21.296Z,16.88
2018-05-27T11:52:21.310Z,16.88
2018-05-27T11:53:21.318Z,16.88
2018-05-27T11:54:21.525Z,22.50
2018-05-27T11:55:21.320Z,22.50
2018-05-27T11:56:21.322Z,22.50
2018-05-27T11:57:21.536Z,16.88
2018-05-27T11:58:21.330Z,16.88
2018-05-27T11:59:21.552Z,16.88
2018-05-27T12:00:21.340Z,22.50
2018-05-27T12:01:21.361Z,22.50
2018-05-27T12:02:21.363Z,22.50
2018-05-27T12:03:21.585Z,22.50
2018-05-27T12:04:21.361Z,22.50
2018-05-27T12:05:21.365Z,22.50
2018-05-27T12:06:21.369Z,22.50
2018-05-27T12:07:21.384Z,22.50
2018-05-27T12:08:21.379Z,22.50
2018-05-27T12:09:21.415Z,22.50
2018-05-27T12:10:21.388Z,22.50
2018-05-27T12:11:21.393Z,22.50
2018-05-27T12:12:21.603Z,22.50
2018-05-27T12:13:21.402Z,22.50
2018-05-27T12:14:21.407Z,22.50
2018-05-27T12:15:21.427Z,22.50
2018-05-27T12:16:21.430Z,22.50
2018-05-27T12:17:21.422Z,22.50
2018-05-27T12:18:21.427Z,22.50
2018-05-27T12:19:21.444Z,22.50
2018-05-27T12:20:21.450Z,22.50
2018-05-27T12:21:21.644Z,22.50
2018-05-27T12:22:21.667Z,22.50
2018-05-27T12:23:21.457Z,22.50
2018-05-27T12:24:21.461Z,22.50
2018-05-27T12:25:21.666Z,22.50
2018-05-27T12:26:21.679Z,22.50
2018-05-27T12:27:21.474Z,22.50
2018-05-27T12:28:21.678Z,22.50
2018-05-27T12:29:21.686Z,22.50
2018-05-27T12:30:21.489Z,22.50
2018-05-27T12:31:21.496Z,22.50
2018-05-27T12:32:21.699Z,22.50
2018-05-27T12:33:21.505Z,22.50
2018-05-27T12:34:21.507Z,22.50
2018-05-27T12:35:21.530Z,16.88
2018-05-27T12:36:21.518Z,16.88
2018-05-27T12:37:21.521Z,16.88
2018-05-27T12:38:21.528Z,16.88
2018-05-27T12:39:21.533Z,16.88
2018-05-27T12:40:21.538Z,16.88
2018-05-27T12:41:21.544Z,16.88
2018-05-27T12:42:21.549Z,16.88
2018-05-27T12:43:21.565Z,16.88
2018-05-27T12:44:21.568Z,16.88
2018-05-27T12:45:21.774Z,16.88
2018-05-27T12:46:21.769Z,11.25
2018-05-27T12:47:21.784Z,11.25
2018-05-27T12:48:21.583Z,11.25
2018-05-27T12:49:21.783Z,11.25
2018-05-27T12:50:21.790Z,11.25
2018-05-27T12:51:21.590Z,11.25
2018-05-27T12:52:21.612Z,11.25
2018-05-27T12:53:21.618Z,11.25
2018-05-27T12:54:21.617Z,11.25
2018-05-27T12:55:21.612Z,11.25
2018-05-27T12:56:21.816Z,11.25
2018-05-27T12:57:21.622Z,11.25
2018-05-27T12:58:21.642Z,11.25
2018-05-27T12:59:21.846Z,11.25
2018-05-27T13:00:21.836Z,11.25
2018-05-27T13:01:21.855Z,11.25
2018-05-27T13:02:21.650Z,11.25
2018-05-27T13:03:21.654Z,11.25